Time;durP1;ratioP1;P1;durP2;ratioP2;P2;SDS_P1;SDS_P2;PMS_P1;PMS_P2;Temp;Humidity;BMP_temperature;BMP_pressure;BME280_temperature;BME280_humidity;BME280_pressure;Samples;Min_cycle;Max_cycle;Signal;HPM_P1;HPM_P2
2022/11/25 00:00:05;;;;;;;17.88;10.68;;;10.60;99.90;11.00;99494.00;;;;345530;28;87542;-90
2022/11/25 00:00:18;;;;;;;20.20;10.60;;;10.70;99.90;11.00;99496.00;;;;343981;28;90154;-90
2022/11/25 00:00:30;;;;;;;19.00;9.55;;;10.70;99.90;10.90;99489.00;;;;343035;28;85145;-91
2022/11/25 00:00:42;;;;;;;18.88;9.90;;;10.70;99.90;11.00;99493.00;;;;341325;28;87922;-90
2022/11/25 00:00:53;;;;;;;17.08;10.13;;;10.70;99.90;11.10;99484.00;;;;341455;28;84521;-90
2022/11/25 00:01:15;;;;;;;17.10;9.98;;;10.70;99.90;11.00;99493.00;;;;341254;28;91573;-91
2022/11/25 00:01:28;;;;;;;14.73;9.45;;;10.70;99.90;11.00;99491.00;;;;342795;28;84383;-90
2022/11/25 00:01:40;;;;;;;14.52;8.77;;;10.70;99.90;11.00;99490.00;;;;342444;28;89458;-90
2022/11/25 00:01:52;;;;;;;13.45;8.43;;;10.70;99.90;10.90;99488.00;;;;341805;28;83040;-91
2022/11/25 00:02:04;;;;;;;13.00;8.82;;;10.70;99.90;10.90;99485.00;;;;345279;28;87491;-90
2022/11/25 00:02:16;;;;;;;13.27;8.60;;;10.70;99.90;10.90;99494.00;;;;341460;28;82576;-91
2022/11/25 00:02:28;;;;;;;13.95;8.40;;;10.70;99.90;10.80;99490.00;;;;341321;28;90093;-91
2022/11/25 00:02:46;;;;;;;14.68;8.68;;;10.70;99.90;10.70;99487.00;;;;340409;28;83435;-90
2022/11/25 00:02:58;;;;;;;14.98;9.23;;;10.70;99.90;10.90;99481.00;;;;343706;28;91999;-91
2022/11/25 00:03:09;;;;;;;15.23;9.23;;;10.70;99.90;11.00;99487.00;;;;341788;28;83236;-90
2022/11/25 00:03:21;;;;;;;14.43;8.38;;;10.70;99.90;11.10;99492.00;;;;340103;28;89569;-90
2022/11/25 00:03:34;;;;;;;14.35;7.97;;;10.70;99.90;11.10;99491.00;;;;343023;28;83403;-90
2022/11/25 00:03:46;;;;;;;15.07;7.97;;;10.70;99.90;11.10;99494.00;;;;342493;28;90668;-90
2022/11/25 00:03:58;;;;;;;14.60;8.00;;;10.70;99.90;11.10;99493.00;;;;345842;28;83296;-90
2022/11/25 00:04:10;;;;;;;13.73;8.15;;;10.70;99.90;11.10;99489.00;;;;342561;28;90528;-89
2022/11/25 00:04:22;;;;;;;14.00;7.88;;;10.70;99.90;11.10;99492.00;;;;342115;28;83517;-90
2022/11/25 00:04:35;;;;;;;13.13;7.60;;;10.70;99.90;11.10;99493.00;;;;343127;28;88625;-91
2022/11/25 00:04:48;;;;;;;14.27;7.63;;;10.80;99.90;11.00;99485.00;;;;341983;28;85192;-89
2022/11/25 00:05:00;;;;;;;16.13;8.05;;;10.70;99.90;11.00;99488.00;;;;342840;28;91013;-90
2022/11/25 00:05:14;;;;;;;16.42;8.45;;;10.70;99.90;11.00;99491.00;;;;346105;28;84934;-90
2022/11/25 00:05:27;;;;;;;14.70;8.93;;;10.70;99.90;11.00;99489.00;;;;343038;28;88611;-90
2022/11/25 00:05:39;;;;;;;15.43;9.20;;;10.70;99.90;11.00;99495.00;;;;343097;28;84104;-90
2022/11/25 00:05:51;;;;;;;17.45;9.02;;;10.70;99.90;11.00;99494.00;;;;344107;28;89366;-90
2022/11/25 00:06:24;;;;;;;17.05;8.75;;;10.70;99.90;10.90;99493.00;;;;341834;28;82491;-90
2022/11/25 00:06:36;;;;;;;13.63;7.72;;;10.70;99.90;10.90;99489.00;;;;344201;28;89467;-90
2022/11/25 00:06:48;;;;;;;14.02;7.90;;;10.80;99.90;10.90;99493.00;;;;344373;28;82629;-89
2022/11/25 00:07:00;;;;;;;15.20;8.57;;;10.70;99.90;10.80;99483.00;;;;342494;28;88748;-90
2022/11/25 00:07:12;;;;;;;15.75;8.85;;;10.70;99.90;10.80;99493.00;;;;344643;28;82177;-90
2022/11/25 00:07:24;;;;;;;15.98;8.32;;;10.70;99.90;10.80;99492.00;;;;342709;28;88616;-90
2022/11/25 00:07:36;;;;;;;15.20;8.07;;;10.70;99.90;10.80;99494.00;;;;347083;28;83374;-90
2022/11/25 00:07:48;;;;;;;13.10;8.15;;;10.70;99.90;10.70;99489.00;;;;344201;28;90990;-89
2022/11/25 00:08:00;;;;;;;12.52;8.15;;;10.70;99.90;10.70;99488.00;;;;343249;28;83444;-90
2022/11/25 00:08:12;;;;;;;12.65;8.05;;;10.60;99.90;10.70;99490.00;;;;340104;28;88634;-89
2022/11/25 00:08:24;;;;;;;14.52;8.15;;;10.60;99.90;10.70;99492.00;;;;344425;28;83837;-90
2022/11/25 00:08:36;;;;;;;14.27;7.57;;;10.60;99.90;10.80;99487.00;;;;340096;28;89516;-90
2022/11/25 00:08:53;;;;;;;15.85;7.88;;;10.60;99.90;10.70;99496.00;;;;343365;28;82560;-89
2022/11/25 00:09:09;;;;;;;17.60;8.77;;;10.60;99.90;10.70;99498.00;;;;343761;28;88434;-90
2022/11/25 00:09:21;;;;;;;14.13;8.60;;;10.60;99.90;10.80;99496.00;;;;344371;28;82871;-89
2022/11/25 00:09:33;;;;;;;12.25;7.88;;;10.60;99.90;10.60;99495.00;;;;340188;28;90245;-89
2022/11/25 00:09:45;;;;;;;12.52;7.55;;;10.60;99.90;10.60;99495.00;;;;344778;28;82361;-90
2022/11/25 00:09:57;;;;;;;14.30;7.97;;;10.60;99.90;10.60;99502.00;;;;345573;28;91833;-90
2022/11/25 00:10:09;;;;;;;15.85;8.73;;;10.50;99.90;10.60;99495.00;;;;341891;28;83315;-90
2022/11/25 00:10:21;;;;;;;15.18;9.07;;;10.50;99.90;10.60;99497.00;;;;343850;28;91995;-91
2022/11/25 00:10:32;;;;;;;14.23;8.30;;;10.50;99.90;10.70;99494.00;;;;341822;28;83548;-90
2022/11/25 00:10:44;;;;;;;14.82;8.45;;;10.60;99.90;10.70;99494.00;;;;344123;28;91994;-91
2022/11/25 00:11:00;;;;;;;16.10;8.73;;;10.50;99.90;10.60;99498.00;;;;344510;28;83450;-90
2022/11/25 00:11:12;;;;;;;13.98;8.05;;;10.50;99.90;10.50;99497.00;;;;342562;28;90947;-91
2022/11/25 00:11:24;;;;;;;13.05;8.00;;;10.50;99.90;10.50;99495.00;;;;341876;28;82660;-91
2022/11/25 00:11:38;;;;;;;13.73;8.45;;;10.50;99.90;10.40;99500.00;;;;340187;28;86785;-91
2022/11/25 00:11:50;;;;;;;15.43;8.85;;;10.50;99.90;10.50;99499.00;;;;344781;28;82344;-90
2022/11/25 00:12:02;;;;;;;17.25;9.25;;;10.50;99.90;10.50;99505.00;;;;344557;28;88499;-90
2022/11/25 00:12:14;;;;;;;16.80;9.27;;;10.50;99.90;10.50;99500.00;;;;340685;28;83351;-91
2022/11/25 00:12:26;;;;;;;12.88;8.05;;;10.50;99.90;10.40;99501.00;;;;341657;28;90790;-90
2022/11/25 00:12:38;;;;;;;14.82;8.85;;;10.50;99.90;10.30;99500.00;;;;343442;28;83491;-90
2022/11/25 00:12:50;;;;;;;16.92;9.27;;;10.40;99.90;10.30;99501.00;;;;339048;28;88545;-90
2022/11/25 00:13:02;;;;;;;19.20;10.38;;;10.40;99.90;10.40;99509.00;;;;343495;28;82545;-90
2022/11/25 00:13:14;;;;;;;19.35;11.18;;;10.40;99.90;10.40;99504.00;;;;340249;28;88261;-90
2022/11/25 00:13:26;;;;;;;17.42;10.77;;;10.40;99.90;10.40;99503.00;;;;344555;28;85149;-90
2022/11/25 00:13:38;;;;;;;16.33;9.68;;;10.40;99.90;10.50;99511.00;;;;340338;28;88283;-90
2022/11/25 00:13:50;;;;;;;16.00;9.43;;;10.40;99.90;10.40;99507.00;;;;342104;28;85201;-91
2022/11/25 00:14:02;;;;;;;17.42;9.20;;;10.30;99.90;10.40;99498.00;;;;341804;28;89788;-90
2022/11/25 00:14:14;;;;;;;15.77;8.40;;;10.30;99.90;10.40;99502.00;;;;343281;28;82499;-90
2022/11/25 00:14:26;;;;;;;14.13;7.70;;;10.30;99.90;10.50;99502.00;;;;341503;28;92767;-89
2022/11/25 00:14:38;;;;;;;14.00;8.45;;;10.30;99.90;10.40;99501.00;;;;345806;28;83612;-91
2022/11/25 00:14:50;;;;;;;15.43;8.80;;;10.30;99.90;10.40;99509.00;;;;345655;28;89461;-90
2022/11/25 00:15:02;;;;;;;16.27;8.95;;;10.30;99.90;10.50;99494.00;;;;343205;28;83675;-90
2022/11/25 00:15:14;;;;;;;15.18;8.70;;;10.30;99.90;10.60;99499.00;;;;342831;28;89918;-90
2022/11/25 00:15:26;;;;;;;15.30;8.65;;;10.30;99.90;10.50;99494.00;;;;344899;28;83459;-90
2022/11/25 00:15:38;;;;;;;16.00;8.38;;;10.30;99.90;10.50;99499.00;;;;342904;28;89821;-90
2022/11/25 00:15:49;;;;;;;17.65;8.95;;;10.30;99.90;10.40;99490.00;;;;344987;28;84765;-90
2022/11/25 00:16:10;;;;;;;15.43;9.02;;;10.30;99.90;10.50;99508.00;;;;344320;28;91913;-90
2022/11/25 00:16:23;;;;;;;18.55;9.25;;;10.30;99.90;10.60;99511.00;;;;345947;28;82522;-90
2022/11/25 00:16:34;;;;;;;18.23;8.93;;;10.30;99.90;10.70;99506.00;;;;344386;28;88762;-90
2022/11/25 00:16:46;;;;;;;15.82;8.73;;;10.30;99.90;10.70;99505.00;;;;342096;28;82404;-91
2022/11/25 00:16:59;;;;;;;16.52;8.70;;;10.30;99.90;10.60;99514.00;;;;341359;28;91440;-90
2022/11/25 00:17:11;;;;;;;16.48;8.63;;;10.40;99.90;10.50;99503.00;;;;344694;28;82456;-91
2022/11/25 00:17:23;;;;;;;16.65;8.60;;;10.40;99.90;10.40;99507.00;;;;344370;28;89730;-90
2022/11/25 00:17:35;;;;;;;14.65;8.65;;;10.30;99.90;10.40;99501.00;;;;342979;28;82784;-90
2022/11/25 00:17:47;;;;;;;15.57;8.75;;;10.30;99.90;10.30;99503.00;;;;344417;28;89359;-89
2022/11/25 00:17:58;;;;;;;16.75;9.05;;;10.30;99.90;10.30;99507.00;;;;343219;28;83836;-90
2022/11/25 00:18:10;;;;;;;15.10;8.93;;;10.40;99.90;10.30;99500.00;;;;344310;28;88963;-90
2022/11/25 00:18:22;;;;;;;14.32;8.63;;;10.30;99.90;10.30;99503.00;;;;340711;28;83406;-90
2022/11/25 00:18:34;;;;;;;14.23;8.57;;;10.30;99.90;10.30;99500.00;;;;345597;28;91056;-89
2022/11/25 00:18:48;;;;;;;14.60;9.05;;;10.40;99.90;10.40;99498.00;;;;341835;28;82573;-89
2022/11/25 00:19:00;;;;;;;15.70;9.00;;;10.30;99.90;10.40;99500.00;;;;345763;28;89354;-90
2022/11/25 00:19:11;;;;;;;14.82;8.85;;;10.40;99.90;10.50;99508.00;;;;341517;28;83496;-90
2022/11/25 00:19:23;;;;;;;14.40;8.75;;;10.40;99.90;10.50;99498.00;;;;345698;28;90199;-90
2022/11/25 00:19:35;;;;;;;13.98;8.43;;;10.30;99.90;10.40;99494.00;;;;344545;28;83405;-90
2022/11/25 00:19:47;;;;;;;12.60;7.95;;;10.40;99.90;10.40;99502.00;;;;343089;28;89880;-90
2022/11/25 00:20:00;;;;;;;13.20;7.93;;;10.30;99.90;10.40;99494.00;;;;341825;28;83729;-91
2022/11/25 00:20:12;;;;;;;15.18;8.40;;;10.30;99.90;10.60;99503.00;;;;343164;28;90483;-90
2022/11/25 00:20:24;;;;;;;17.83;8.88;;;10.40;99.90;10.60;99493.00;;;;343202;28;84639;-90
2022/11/25 00:20:36;;;;;;;16.70;9.00;;;10.40;99.90;10.70;99498.00;;;;340175;28;92033;-90
2022/11/25 00:20:48;;;;;;;15.00;8.93;;;10.40;99.90;10.80;99496.00;;;;343292;28;83822;-90
2022/11/25 00:21:09;;;;;;;14.52;9.02;;;10.40;99.90;10.80;99504.00;;;;342946;28;90107;-90
2022/11/25 00:21:26;;;;;;;15.48;8.35;;;10.40;99.90;10.70;99503.00;;;;342073;28;83578;-90
2022/11/25 00:21:38;;;;;;;18.00;8.57;;;10.40;99.90;10.60;99503.00;;;;342859;28;88488;-89
2022/11/25 00:21:50;;;;;;;18.15;8.57;;;10.40;99.90;10.60;99498.00;;;;343364;28;83500;-91
2022/11/25 00:22:02;;;;;;;19.17;9.00;;;10.50;99.90;10.60;99498.00;;;;341675;28;90140;-90
2022/11/25 00:22:14;;;;;;;17.88;8.65;;;10.40;99.90;10.60;99496.00;;;;344457;28;83321;-90
2022/11/25 00:22:26;;;;;;;17.27;8.32;;;10.40;99.90;10.60;99497.00;;;;344307;28;89282;-89
2022/11/25 00:22:38;;;;;;;15.13;8.60;;;10.50;99.90;10.70;99487.00;;;;343107;28;82838;-90
2022/11/25 00:22:50;;;;;;;15.73;8.88;;;10.50;99.90;10.80;99492.00;;;;340222;28;89207;-91
2022/11/25 00:23:02;;;;;;;15.98;9.10;;;10.50;99.90;10.70;99499.00;;;;341367;28;83233;-90
2022/11/25 00:23:14;;;;;;;18.27;9.13;;;10.50;99.90;10.50;99489.00;;;;341668;28;91099;-90
2022/11/25 00:23:26;;;;;;;18.30;8.88;;;10.40;99.90;10.60;99493.00;;;;343702;28;83101;-90
2022/11/25 00:23:44;;;;;;;16.00;8.55;;;10.40;99.90;10.70;99495.00;;;;344401;28;88988;-90
2022/11/25 00:24:02;;;;;;;15.57;8.73;;;10.50;99.90;10.60;99504.00;;;;342032;28;83798;-89
2022/11/25 00:24:14;;;;;;;13.82;8.13;;;10.50;99.90;10.80;99489.00;;;;341647;28;87422;-90
2022/11/25 00:24:26;;;;;;;14.50;7.88;;;10.50;99.90;10.70;99501.00;;;;340839;28;83205;-90
2022/11/25 00:24:38;;;;;;;14.98;7.70;;;10.50;99.90;10.90;99493.00;;;;340260;28;92251;-90
2022/11/25 00:24:50;;;;;;;18.08;8.35;;;10.50;99.90;10.90;99497.00;;;;340720;28;83716;-90
2022/11/25 00:25:02;;;;;;;16.45;7.88;;;10.50;99.90;10.70;99505.00;;;;340451;28;89012;-90
2022/11/25 00:25:14;;;;;;;17.25;8.45;;;10.50;99.90;10.60;99488.00;;;;339465;28;83465;-91
2022/11/25 00:25:26;;;;;;;15.70;8.50;;;10.50;99.90;10.60;99499.00;;;;340092;28;89624;-90
2022/11/25 00:25:38;;;;;;;15.02;8.52;;;10.60;99.90;10.80;99497.00;;;;342212;28;82626;-90
2022/11/25 00:25:49;;;;;;;13.07;8.40;;;10.50;99.90;10.80;99495.00;;;;343190;28;89095;-90
2022/11/25 00:26:12;;;;;;;14.52;8.30;;;10.60;99.90;10.60;99497.00;;;;343337;28;82373;-90
2022/11/25 00:26:25;;;;;;;15.63;9.27;;;10.60;99.90;10.70;99492.00;;;;341934;28;87907;-90
2022/11/25 00:26:37;;;;;;;16.17;8.82;;;10.60;99.90;10.80;99495.00;;;;342107;28;82461;-90
2022/11/25 00:26:49;;;;;;;15.82;7.82;;;10.60;99.90;10.80;99495.00;;;;342525;28;87330;-89
2022/11/25 00:27:03;;;;;;;15.43;7.78;;;10.60;99.90;10.80;99489.00;;;;342258;28;84530;-90
2022/11/25 00:27:15;;;;;;;14.73;7.70;;;10.60;99.90;10.70;99496.00;;;;342904;28;91801;-89
2022/11/25 00:27:27;;;;;;;17.00;8.45;;;10.60;99.90;10.70;99493.00;;;;340808;28;83712;-91
2022/11/25 00:27:39;;;;;;;15.02;8.40;;;10.60;99.90;10.80;99489.00;;;;340484;28;90713;-91
2022/11/25 00:27:52;;;;;;;17.55;8.68;;;10.60;99.90;10.90;99487.00;;;;342347;28;82385;-89
2022/11/25 00:28:03;;;;;;;17.13;8.82;;;10.60;99.90;10.70;99494.00;;;;341886;28;91623;-90
2022/11/25 00:28:17;;;;;;;16.83;8.40;;;10.60;99.90;10.70;99497.00;;;;340846;28;82277;-90
2022/11/25 00:28:29;;;;;;;16.83;7.93;;;10.60;99.90;10.70;99491.00;;;;343036;28;90510;-90
2022/11/25 00:28:42;;;;;;;13.43;7.40;;;10.60;99.90;10.80;99494.00;;;;340780;28;84972;-90
2022/11/25 00:28:56;;;;;;;13.32;7.35;;;10.60;99.90;10.80;99491.00;;;;343093;28;90672;-90
2022/11/25 00:29:09;;;;;;;16.27;7.95;;;10.60;99.90;11.00;99498.00;;;;343573;28;83591;-89
2022/11/25 00:29:21;;;;;;;16.52;8.52;;;10.60;99.90;11.10;99494.00;;;;341938;28;89062;-90
2022/11/25 00:29:34;;;;;;;14.48;8.13;;;10.60;99.90;11.10;99495.00;;;;341883;28;83530;-90
2022/11/25 00:29:45;;;;;;;14.82;7.70;;;10.70;99.90;11.00;99493.00;;;;337839;28;88582;-90
2022/11/25 00:29:57;;;;;;;14.13;7.30;;;10.70;99.90;11.00;99494.00;;;;342008;28;82343;-89
2022/11/25 00:30:10;;;;;;;13.52;7.32;;;10.70;99.90;11.00;99495.00;;;;342570;28;87475;-89
2022/11/25 00:30:22;;;;;;;15.98;7.72;;;10.70;99.90;11.00;99498.00;;;;340680;28;82380;-89
2022/11/25 00:30:34;;;;;;;17.17;7.88;;;10.70;99.90;11.10;99487.00;;;;341620;28;89661;-90
2022/11/25 00:30:46;;;;;;;17.63;8.13;;;10.70;99.90;11.00;99499.00;;;;339437;28;82741;-89
2022/11/25 00:31:10;;;;;;;16.15;8.50;;;10.80;99.90;11.20;99493.00;;;;341469;28;90712;-90
2022/11/25 00:31:28;;;;;;;14.38;8.07;;;10.70;99.90;11.10;99495.00;;;;340599;28;83344;-89
2022/11/25 00:31:40;;;;;;;13.57;7.80;;;10.80;99.90;11.20;99481.00;;;;341462;28;89813;-90
2022/11/25 00:31:52;;;;;;;13.27;7.60;;;10.80;99.90;11.20;99488.00;;;;340536;28;83464;-89
2022/11/25 00:32:04;;;;;;;13.80;7.60;;;10.80;99.90;11.10;99494.00;;;;340140;28;90802;-90
2022/11/25 00:32:16;;;;;;;13.45;7.60;;;10.80;99.90;11.10;99496.00;;;;341608;28;83721;-91
2022/11/25 00:32:28;;;;;;;12.27;7.68;;;10.80;99.90;11.10;99500.00;;;;342956;28;90578;-90
2022/11/25 00:32:40;;;;;;;13.52;7.85;;;10.80;99.90;11.20;99495.00;;;;341787;28;83764;-90
2022/11/25 00:32:53;;;;;;;14.30;8.27;;;10.80;99.90;11.30;99495.00;;;;343202;28;86917;-90
2022/11/25 00:33:05;;;;;;;15.07;8.57;;;10.80;99.90;11.20;99491.00;;;;344469;28;84743;-89
2022/11/25 00:33:17;;;;;;;19.92;8.45;;;10.90;99.90;11.10;99495.00;;;;342647;28;89980;-90
2022/11/25 00:33:29;;;;;;;17.50;7.38;;;10.80;99.90;11.20;99481.00;;;;341409;28;83393;-90
2022/11/25 00:33:41;;;;;;;12.65;7.40;;;10.80;99.90;11.20;99489.00;;;;342896;28;88428;-89
2022/11/25 00:33:53;;;;;;;13.30;7.63;;;10.80;99.90;11.10;99492.00;;;;341751;28;83421;-89
2022/11/25 00:34:06;;;;;;;13.10;7.38;;;10.90;99.90;11.10;99492.00;;;;340239;28;88001;-90
2022/11/25 00:34:17;;;;;;;13.93;7.72;;;10.90;99.90;11.10;99482.00;;;;343939;28;82733;-90
2022/11/25 00:34:29;;;;;;;13.75;8.20;;;10.90;99.90;11.00;99492.00;;;;344421;28;90637;-90
2022/11/25 00:34:41;;;;;;;14.93;7.88;;;10.90;99.90;11.10;99489.00;;;;344734;28;83968;-90
2022/11/25 00:34:53;;;;;;;13.93;7.95;;;10.90;99.90;11.20;99494.00;;;;341342;28;89911;-90
2022/11/25 00:35:05;;;;;;;13.68;7.68;;;10.90;99.90;11.10;99488.00;;;;340620;28;83491;-90
2022/11/25 00:35:17;;;;;;;13.15;7.88;;;10.90;99.90;11.10;99484.00;;;;345933;28;89344;-90
2022/11/25 00:35:29;;;;;;;13.45;7.80;;;10.90;99.90;11.10;99488.00;;;;340469;28;83424;-90
2022/11/25 00:35:41;;;;;;;13.27;7.97;;;10.90;99.90;11.00;99489.00;;;;342794;28;92222;-89
2022/11/25 00:35:52;;;;;;;14.20;8.48;;;10.80;99.90;11.10;99494.00;;;;341862;28;83697;-90
2022/11/25 00:36:06;;;;;;;14.50;8.55;;;10.90;99.90;11.10;99491.00;;;;341625;28;89581;-90
2022/11/25 00:36:21;;;;;;;14.25;8.02;;;10.90;99.90;11.10;99495.00;;;;340202;28;84170;-90
2022/11/25 00:36:35;;;;;;;12.95;7.40;;;10.90;99.90;10.90;99490.00;;;;345632;28;90805;-90
2022/11/25 00:36:47;;;;;;;14.10;7.45;;;10.90;99.90;11.00;99490.00;;;;343103;28;83925;-91
2022/11/25 00:36:59;;;;;;;14.13;7.38;;;10.90;99.90;11.20;99491.00;;;;341621;28;89678;-90
2022/11/25 00:37:11;;;;;;;13.85;7.20;;;10.90;99.90;11.20;99499.00;;;;343367;28;83524;-90
2022/11/25 00:37:23;;;;;;;12.27;7.03;;;10.90;99.90;11.20;99492.00;;;;341836;28;88144;-90
2022/11/25 00:37:35;;;;;;;13.63;7.00;;;10.90;99.90;11.20;99486.00;;;;343391;28;83376;-90
2022/11/25 00:37:47;;;;;;;12.70;7.18;;;10.90;99.90;11.40;99498.00;;;;344329;28;89475;-91
2022/11/25 00:37:59;;;;;;;13.77;7.65;;;10.90;99.90;11.30;99497.00;;;;342058;28;82817;-90
2022/11/25 00:38:10;;;;;;;15.27;8.27;;;10.90;99.90;11.10;99485.00;;;;341720;28;88143;-90
2022/11/25 00:38:22;;;;;;;15.50;7.63;;;10.90;99.90;11.20;99484.00;;;;344332;28;82950;-90
2022/11/25 00:38:34;;;;;;;15.20;8.13;;;10.90;99.90;11.10;99482.00;;;;341609;28;92285;-90
2022/11/25 00:38:46;;;;;;;14.80;8.50;;;10.90;99.90;11.20;99489.00;;;;344495;28;83770;-89
2022/11/25 00:39:04;;;;;;;13.32;8.65;;;10.90;99.90;11.20;99496.00;;;;342779;28;89653;-90
2022/11/25 00:39:17;;;;;;;13.40;8.43;;;10.90;99.90;11.20;99485.00;;;;342033;28;82946;-90
2022/11/25 00:39:29;;;;;;;14.93;8.40;;;10.90;99.90;11.30;99492.00;;;;346668;28;90901;-89
2022/11/25 00:39:41;;;;;;;14.75;8.15;;;10.90;99.90;11.10;99498.00;;;;342026;28;83386;-90
2022/11/25 00:39:52;;;;;;;13.77;7.78;;;10.90;99.90;11.10;99500.00;;;;343046;28;89298;-89
2022/11/25 00:40:08;;;;;;;12.65;7.35;;;10.90;99.90;11.30;99495.00;;;;344475;28;82661;-90
2022/11/25 00:40:19;;;;;;;12.63;7.88;;;10.90;99.90;11.10;99495.00;;;;341664;28;88162;-91
2022/11/25 00:40:31;;;;;;;12.57;8.15;;;10.90;99.90;11.00;99500.00;;;;342084;28;82252;-88
2022/11/25 00:44:34;;;;;;;12.38;7.72;;;10.90;99.90;11.00;99500.00;;;;342860;28;89713;-90
2022/11/25 00:44:37;;;;;;;17.08;9.75;;;10.70;99.90;10.50;99507.00;;;;341611;28;85330;-90
2022/11/25 00:44:50;;;;;;;19.65;10.10;;;10.60;99.90;10.50;99510.00;;;;340068;28;88719;-90
2022/11/25 00:45:03;;;;;;;16.70;9.18;;;10.60;99.90;10.50;99498.00;;;;343461;28;83449;-89
2022/11/25 00:45:15;;;;;;;14.75;9.15;;;10.50;99.90;10.50;99508.00;;;;344407;28;88591;-91
2022/11/25 00:45:27;;;;;;;16.00;9.32;;;10.50;99.90;10.50;99505.00;;;;342218;28;83417;-90
2022/11/25 00:45:39;;;;;;;17.05;8.95;;;10.60;99.90;10.50;99506.00;;;;345723;28;91531;-90
2022/11/25 00:45:51;;;;;;;19.05;9.55;;;10.50;99.90;10.50;99505.00;;;;342000;28;83667;-89
2022/11/25 00:46:03;;;;;;;17.73;9.88;;;10.50;99.90;10.40;99507.00;;;;341481;28;89550;-90
2022/11/25 00:46:15;;;;;;;15.48;9.00;;;10.50;99.90;10.30;99508.00;;;;343322;28;82507;-90
2022/11/25 00:46:27;;;;;;;14.27;8.73;;;10.50;99.90;10.30;99504.00;;;;340088;28;93348;-90
2022/11/25 00:46:39;;;;;;;16.95;9.32;;;10.50;99.90;10.30;99509.00;;;;343494;28;82460;-88
2022/11/25 00:46:51;;;;;;;19.10;9.88;;;10.50;99.90;10.20;99511.00;;;;341769;28;88657;-90
2022/11/25 00:47:17;;;;;;;19.38;9.82;;;10.40;99.90;10.20;99508.00;;;;340674;28;82452;-90
2022/11/25 00:47:29;;;;;;;16.33;9.43;;;10.40;99.90;10.20;99506.00;;;;344177;28;89068;-89
2022/11/25 00:47:41;;;;;;;18.10;9.80;;;10.30;99.90;10.10;99500.00;;;;343185;28;83803;-90
2022/11/25 00:47:53;;;;;;;17.73;9.52;;;10.30;99.90;10.10;99505.00;;;;341572;28;88643;-89
2022/11/25 00:48:04;;;;;;;15.35;9.15;;;10.30;99.90;10.10;99517.00;;;;341767;28;82404;-89
2022/11/25 00:48:16;;;;;;;17.17;9.88;;;10.20;99.90;10.10;99513.00;;;;341336;28;91808;-89
2022/11/25 00:48:28;;;;;;;19.95;9.35;;;10.20;99.90;10.10;99506.00;;;;340819;28;82522;-89
2022/11/25 00:48:40;;;;;;;23.27;9.18;;;10.20;99.90;10.10;99516.00;;;;342905;28;90774;-90
2022/11/25 00:48:52;;;;;;;18.67;7.88;;;10.20;99.90;10.10;99509.00;;;;343442;28;83356;-90
2022/11/25 00:49:04;;;;;;;17.45;8.02;;;10.20;99.90;10.10;99510.00;;;;344281;28;89747;-90
2022/11/25 00:49:16;;;;;;;15.02;8.52;;;10.20;99.90;10.10;99512.00;;;;341883;28;82252;-90
2022/11/25 00:49:28;;;;;;;16.10;9.23;;;10.10;99.90;10.20;99516.00;;;;342733;28;88546;-89
2022/11/25 00:49:48;;;;;;;17.85;9.68;;;10.20;99.90;10.30;99514.00;;;;341931;28;83469;-90
2022/11/25 00:50:00;;;;;;;18.30;10.23;;;10.20;99.90;10.30;99509.00;;;;339168;28;89922;-90
2022/11/25 00:50:12;;;;;;;16.10;9.63;;;10.20;99.90;10.20;99506.00;;;;344530;28;83495;-90
2022/11/25 00:50:24;;;;;;;20.48;9.45;;;10.20;99.90;10.30;99512.00;;;;342967;28;88597;-90
2022/11/25 00:50:36;;;;;;;21.27;9.32;;;10.20;99.90;10.40;99501.00;;;;343167;28;82618;-90
2022/11/25 00:50:47;;;;;;;21.70;9.55;;;10.20;99.90;10.50;99501.00;;;;340177;28;92152;-91
2022/11/25 00:50:59;;;;;;;16.33;8.95;;;10.20;99.90;10.50;99508.00;;;;343121;28;84471;-91
2022/11/25 00:51:11;;;;;;;16.10;9.32;;;10.20;99.90;10.40;99511.00;;;;344300;28;86894;-90
2022/11/25 00:51:23;;;;;;;15.80;9.20;;;10.20;99.90;10.40;99500.00;;;;341896;28;82847;-91
2022/11/25 00:51:35;;;;;;;15.25;9.30;;;10.20;99.90;10.30;99508.00;;;;342406;28;90851;-91
2022/11/25 00:51:47;;;;;;;15.30;8.85;;;10.20;99.90;10.40;99513.00;;;;343158;28;83519;-89
2022/11/25 00:51:59;;;;;;;16.00;8.90;;;10.20;99.90;10.30;99510.00;;;;341908;28;89844;-90
2022/11/25 00:52:24;;;;;;;14.90;8.50;;;10.20;99.90;10.20;99513.00;;;;343106;28;82483;-90
2022/11/25 00:52:36;;;;;;;17.52;8.70;;;10.20;99.90;10.30;99511.00;;;;342808;28;90384;-90
2022/11/25 00:52:48;;;;;;;19.90;9.68;;;10.20;99.90;10.30;99516.00;;;;343411;28;83367;-90
2022/11/25 00:52:59;;;;;;;17.98;9.55;;;10.20;99.90;10.30;99515.00;;;;342853;28;89462;-90
2022/11/25 00:53:11;;;;;;;16.00;9.07;;;10.20;99.90;10.30;99519.00;;;;341763;28;83361;-90
2022/11/25 00:53:24;;;;;;;12.63;8.70;;;10.20;99.90;10.30;99519.00;;;;341533;28;91247;-90
2022/11/25 00:53:36;;;;;;;13.50;8.52;;;10.20;99.90;10.60;99525.00;;;;341663;28;83511;-91
2022/11/25 00:53:48;;;;;;;13.50;9.10;;;10.20;99.90;10.60;99510.00;;;;342713;28;91365;-90
2022/11/25 00:54:00;;;;;;;13.00;9.07;;;10.20;99.90;10.70;99520.00;;;;342046;28;83376;-91
2022/11/25 00:54:12;;;;;;;15.95;8.85;;;10.30;99.90;10.70;99525.00;;;;342558;28;90878;-90
2022/11/25 00:54:24;;;;;;;15.90;8.57;;;10.30;99.90;10.70;99517.00;;;;342077;28;82359;-90
2022/11/25 00:54:35;;;;;;;14.63;8.77;;;10.30;99.90;10.60;99524.00;;;;342738;28;91071;-90
2022/11/25 00:54:48;;;;;;;12.80;9.02;;;10.30;99.90;10.60;99526.00;;;;342065;28;82451;-89
2022/11/25 00:55:00;;;;;;;13.40;8.95;;;10.30;99.90;10.60;99524.00;;;;341163;28;91588;-90
2022/11/25 00:55:12;;;;;;;14.30;8.65;;;10.30;99.90;10.60;99520.00;;;;342367;28;84427;-90
2022/11/25 00:55:24;;;;;;;14.07;8.27;;;10.40;99.90;10.70;99527.00;;;;340131;28;90117;-90
2022/11/25 00:56:11;;;;;;;16.80;8.88;;;10.40;99.90;10.60;99515.00;;;;345854;28;84733;-90
2022/11/25 00:56:14;;;;;;;15.98;10.55;;;10.40;99.90;10.60;99521.00;;;;339959;28;90964;-91
2022/11/25 00:56:26;;;;;;;18.00;12.23;;;10.40;99.90;10.60;99528.00;;;;343239;28;83523;-90
2022/11/25 00:56:37;;;;;;;20.42;12.45;;;10.40;99.90;10.60;99522.00;;;;340037;28;89487;-90
2022/11/25 00:56:50;;;;;;;20.23;11.45;;;10.40;99.90;10.60;99526.00;;;;344468;28;83380;-90
2022/11/25 00:57:02;;;;;;;21.77;11.02;;;10.40;99.90;10.60;99524.00;;;;342745;28;91029;-90
2022/11/25 00:57:14;;;;;;;23.17;12.32;;;10.40;99.90;10.60;99526.00;;;;341711;28;86373;-90
2022/11/25 00:57:26;;;;;;;24.75;13.13;;;10.40;99.90;10.70;99522.00;;;;342562;28;92469;-90
2022/11/25 00:57:38;;;;;;;22.95;13.23;;;10.40;99.90;10.80;99523.00;;;;343019;28;87402;-90
2022/11/25 00:57:50;;;;;;;22.02;13.25;;;10.40;99.90;10.80;99523.00;;;;341678;28;88900;-90
2022/11/25 00:58:01;;;;;;;26.77;14.13;;;10.40;99.90;10.80;99528.00;;;;341856;28;84988;-90
2022/11/25 00:58:13;;;;;;;28.35;14.63;;;10.40;99.90;10.70;99519.00;;;;341490;28;88334;-90
2022/11/25 00:58:26;;;;;;;28.77;14.93;;;10.40;99.90;10.60;99517.00;;;;341754;28;83649;-91
2022/11/25 00:58:41;;;;;;;29.33;14.85;;;10.40;99.90;10.60;99528.00;;;;342628;28;90592;-90
2022/11/25 00:58:53;;;;;;;28.40;13.65;;;10.40;99.90;10.60;99529.00;;;;341578;28;87241;-89
2022/11/25 00:59:05;;;;;;;26.13;13.35;;;10.40;99.90;10.60;99520.00;;;;343068;28;90447;-90
2022/11/25 00:59:17;;;;;;;25.10;14.32;;;10.40;99.90;10.60;99519.00;;;;342876;28;86680;-90
2022/11/25 00:59:29;;;;;;;21.88;13.07;;;10.40;99.90;10.50;99521.00;;;;342675;28;90172;-90
2022/11/25 00:59:41;;;;;;;22.83;12.80;;;10.40;99.90;10.60;99526.00;;;;343039;28;86341;-90
2022/11/25 00:59:53;;;;;;;26.17;12.80;;;10.40;99.90;10.60;99521.00;;;;340047;28;89685;-90
2022/11/25 01:00:08;;;;;;;23.90;12.63;;;10.40;99.90;10.60;99523.00;;;;341972;28;83783;-90
2022/11/25 01:00:20;;;;;;;18.63;10.77;;;10.40;99.90;10.70;99527.00;;;;339806;28;89880;-89